Time;durP1;ratioP1;P1;durP2;ratioP2;P2;SDS_P1;SDS_P2;PMS_P1;PMS_P2;Temp;Humidity;BMP_temperature;BMP_pressure;BME280_temperature;BME280_humidity;BME280_pressure;Samples;Min_cycle;Max_cycle;Signal;HPM_P1;HPM_P2
2023/02/04 00:00:12;;;;;;;24.97;4.53;;;;;;;;;;5089741;28;20405;-45
2023/02/04 00:02:38;;;;;;;19.20;3.73;;;;;;;;;;5088669;28;20489;-45
2023/02/04 00:05:04;;;;;;;25.20;4.15;;;;;;;;;;5091132;28;20396;-45
2023/02/04 00:07:30;;;;;;;20.88;3.25;;;;;;;;;;5088697;28;20584;-45
2023/02/04 00:09:56;;;;;;;16.23;3.80;;;;;;;;;;5093372;28;20181;-44
2023/02/04 00:12:22;;;;;;;17.07;4.50;;;;;;;;;;5091231;28;20437;-45
2023/02/04 00:14:48;;;;;;;15.20;4.23;;;;;;;;;;5089262;28;20420;-45
2023/02/04 00:17:14;;;;;;;13.17;4.23;;;;;;;;;;5088058;28;20476;-44
2023/02/04 00:19:40;;;;;;;30.03;5.33;;;;;;;;;;5086245;28;20409;-45
2023/02/04 00:22:06;;;;;;;36.60;11.90;;;;;;;;;;5093172;28;20429;-46
2023/02/04 00:24:33;;;;;;;23.92;5.95;;;;;;;;;;5092467;28;20404;-45
2023/02/04 00:26:59;;;;;;;15.83;4.77;;;;;;;;;;5092145;28;20176;-45
2023/02/04 00:29:25;;;;;;;22.27;4.93;;;;;;;;;;5093198;28;20421;-45
2023/02/04 00:31:51;;;;;;;22.23;4.83;;;;;;;;;;5087400;28;20435;-45
2023/02/04 00:34:20;;;;;;;20.70;3.43;;;;;;;;;;5085559;28;20457;-45
2023/02/04 00:36:46;;;;;;;16.43;5.83;;;;;;;;;;5093207;28;20418;-45
2023/02/04 00:39:12;;;;;;;22.10;3.90;;;;;;;;;;5090884;28;20972;-45
2023/02/04 00:41:38;;;;;;;19.07;4.27;;;;;;;;;;5089848;28;20515;-45
2023/02/04 00:44:04;;;;;;;22.40;5.00;;;;;;;;;;5092343;28;20487;-45
2023/02/04 00:46:30;;;;;;;21.53;4.40;;;;;;;;;;5087721;28;20458;-45
2023/02/04 00:48:56;;;;;;;23.27;4.23;;;;;;;;;;5085657;28;20404;-44
2023/02/04 00:51:22;;;;;;;21.63;4.97;;;;;;;;;;5092697;28;20413;-45
2023/02/04 00:53:48;;;;;;;26.90;4.73;;;;;;;;;;5090725;28;20550;-45
2023/02/04 00:56:14;;;;;;;20.00;5.43;;;;;;;;;;5088963;28;20421;-45
2023/02/04 00:58:39;;;;;;;30.97;4.23;;;;;;;;;;5087515;28;20466;-45
2023/02/04 01:01:05;;;;;;;21.63;5.30;;;;;;;;;;5090050;28;20795;-45
2023/02/04 01:03:31;;;;;;;21.23;4.13;;;;;;;;;;5087429;28;20428;-45
2023/02/04 01:05:57;;;;;;;15.43;4.60;;;;;;;;;;5085249;28;20494;-45
2023/02/04 01:08:23;;;;;;;22.60;4.53;;;;;;;;;;5090734;28;20428;-45
2023/02/04 01:10:49;;;;;;;22.90;4.73;;;;;;;;;;5088489;28;20427;-46
2023/02/04 01:13:15;;;;;;;25.37;4.93;;;;;;;;;;5086885;28;20467;-44
2023/02/04 01:15:41;;;;;;;27.33;5.00;;;;;;;;;;5085300;28;20481;-45
2023/02/04 01:18:07;;;;;;;10.53;4.70;;;;;;;;;;5092391;28;20414;-45
2023/02/04 01:20:33;;;;;;;17.50;4.10;;;;;;;;;;5091555;28;20534;-45
2023/02/04 01:22:59;;;;;;;17.10;3.43;;;;;;;;;;5090855;28;20650;-45
2023/02/04 01:25:25;;;;;;;17.80;4.10;;;;;;;;;;5093098;28;20411;-45
2023/02/04 01:27:51;;;;;;;17.13;4.53;;;;;;;;;;5093994;28;20419;-45
2023/02/04 01:30:17;;;;;;;17.40;3.73;;;;;;;;;;5084864;28;20409;-45
2023/02/04 01:32:44;;;;;;;33.80;5.20;;;;;;;;;;5091633;28;20467;-45
2023/02/04 01:35:10;;;;;;;21.87;5.27;;;;;;;;;;5090343;28;20413;-44
2023/02/04 01:37:36;;;;;;;19.07;4.27;;;;;;;;;;5089349;28;20461;-45
2023/02/04 01:40:02;;;;;;;19.23;4.10;;;;;;;;;;5091146;28;20408;-45
2023/02/04 01:42:28;;;;;;;27.13;5.00;;;;;;;;;;5086648;28;20440;-44
2023/02/04 01:44:54;;;;;;;18.37;4.70;;;;;;;;;;5084771;28;20412;-44
2023/02/04 01:47:20;;;;;;;15.43;3.70;;;;;;;;;;5092026;28;20474;-45
2023/02/04 01:49:50;;;;;;;25.23;5.37;;;;;;;;;;5090052;28;20817;-45
2023/02/04 01:52:17;;;;;;;30.30;4.90;;;;;;;;;;5087783;28;20459;-45
2023/02/04 01:54:43;;;;;;;18.33;5.60;;;;;;;;;;5086412;28;20955;-45
2023/02/04 01:57:13;;;;;;;23.70;5.00;;;;;;;;;;5091798;28;20428;-45
2023/02/04 01:59:41;;;;;;;19.70;4.03;;;;;;;;;;5091605;28;20434;-44
2023/02/04 02:02:27;;;;;;;24.43;4.60;;;;;;;;;;5090742;28;21229;-45
2023/02/04 02:04:53;;;;;;;22.30;4.53;;;;;;;;;;5073072;28;20850;-45
2023/02/04 02:07:19;;;;;;;21.73;4.43;;;;;;;;;;5091397;28;20456;-45
2023/02/04 02:09:45;;;;;;;14.17;3.97;;;;;;;;;;5086690;28;20448;-45
2023/02/04 02:12:11;;;;;;;33.40;4.30;;;;;;;;;;5084344;28;20917;-45
2023/02/04 02:14:37;;;;;;;18.40;4.63;;;;;;;;;;5086995;28;20436;-45
2023/02/04 02:17:03;;;;;;;26.30;4.33;;;;;;;;;;5089718;28;20449;-44
2023/02/04 02:19:33;;;;;;;23.73;4.90;;;;;;;;;;5090008;28;20418;-44
2023/02/04 02:22:04;;;;;;;25.73;6.10;;;;;;;;;;5090060;28;20513;-44
2023/02/04 02:24:29;;;;;;;19.20;5.93;;;;;;;;;;5086155;28;20432;-45
2023/02/04 02:26:56;;;;;;;29.13;4.77;;;;;;;;;;5091438;28;20501;-45
2023/02/04 02:29:23;;;;;;;24.53;4.10;;;;;;;;;;5083329;28;20409;-45
2023/02/04 02:31:49;;;;;;;28.77;4.87;;;;;;;;;;5090911;28;20433;-45
2023/02/04 02:34:15;;;;;;;31.73;4.40;;;;;;;;;;5088399;28;20768;-47
2023/02/04 02:36:41;;;;;;;19.23;4.63;;;;;;;;;;5086550;28;20923;-45
2023/02/04 02:39:08;;;;;;;26.17;4.50;;;;;;;;;;5083221;28;20404;-45
2023/02/04 02:41:34;;;;;;;15.17;4.20;;;;;;;;;;5095223;28;20430;-45
2023/02/04 02:44:01;;;;;;;23.40;6.30;;;;;;;;;;5086884;28;20473;-45
2023/02/04 02:46:27;;;;;;;20.10;4.50;;;;;;;;;;5095167;28;20506;-45
2023/02/04 02:48:53;;;;;;;25.73;4.77;;;;;;;;;;5091917;28;20939;-45
2023/02/04 02:51:19;;;;;;;23.67;4.83;;;;;;;;;;5089906;28;20410;-45
2023/02/04 02:53:45;;;;;;;18.83;4.87;;;;;;;;;;5088269;28;20465;-45
2023/02/04 02:56:11;;;;;;;10.97;3.90;;;;;;;;;;5091275;28;20442;-45
2023/02/04 02:58:37;;;;;;;30.00;4.67;;;;;;;;;;5090924;28;20439;-45
2023/02/04 03:01:08;;;;;;;22.00;4.20;;;;;;;;;;5094773;28;20410;-45
2023/02/04 03:03:36;;;;;;;23.23;4.53;;;;;;;;;;5091963;28;20481;-45
2023/02/04 03:06:13;;;;;;;11.23;4.20;;;;;;;;;;5094905;28;20984;-45
2023/02/04 03:11:50;;;;;;;27.63;5.00;;;;;;;;;;5084063;28;20197;-45
2023/02/04 03:14:16;;;;;;;22.23;3.70;;;;;;;;;;5094482;28;20831;-45
2023/02/04 03:16:43;;;;;;;19.70;4.10;;;;;;;;;;5091689;28;20418;-45
2023/02/04 03:19:09;;;;;;;13.63;3.57;;;;;;;;;;5081680;28;20416;-45
2023/02/04 03:21:35;;;;;;;22.37;4.83;;;;;;;;;;5089385;28;20438;-45
2023/02/04 03:24:01;;;;;;;28.20;4.83;;;;;;;;;;5094105;28;20418;-43
2023/02/04 03:26:27;;;;;;;19.83;3.33;;;;;;;;;;5094818;28;20412;-43
2023/02/04 03:28:54;;;;;;;31.20;3.93;;;;;;;;;;5092983;28;20417;-43
2023/02/04 03:31:20;;;;;;;19.77;6.03;;;;;;;;;;5091061;28;20427;-46
2023/02/04 03:33:46;;;;;;;19.08;3.10;;;;;;;;;;5089303;28;20477;-46
2023/02/04 03:36:12;;;;;;;17.13;6.47;;;;;;;;;;5088017;28;20182;-48
2023/02/04 03:38:38;;;;;;;25.97;4.13;;;;;;;;;;5086721;28;20760;-45
2023/02/04 03:41:04;;;;;;;18.10;4.30;;;;;;;;;;5093835;28;20409;-42
2023/02/04 03:43:30;;;;;;;16.20;4.30;;;;;;;;;;5092724;28;20420;-42
2023/02/04 03:45:56;;;;;;;17.20;4.10;;;;;;;;;;5092457;28;20407;-43
2023/02/04 03:48:22;;;;;;;29.03;5.23;;;;;;;;;;5089508;28;20443;-43
2023/02/04 03:50:48;;;;;;;17.43;7.43;;;;;;;;;;5086877;28;20415;-42
2023/02/04 03:53:14;;;;;;;15.77;4.57;;;;;;;;;;5085411;28;20831;-44
2023/02/04 03:55:40;;;;;;;25.13;4.40;;;;;;;;;;5093982;28;20466;-43
2023/02/04 03:58:06;;;;;;;19.10;5.07;;;;;;;;;;5090958;28;20486;-44
2023/02/04 04:00:32;;;;;;;19.87;3.90;;;;;;;;;;5093426;28;20400;-45
2023/02/04 04:02:58;;;;;;;20.13;4.50;;;;;;;;;;5093205;28;20474;-52
2023/02/04 04:05:26;;;;;;;22.45;4.13;;;;;;;;;;5090936;28;20439;-44
2023/02/04 04:07:52;;;;;;;34.30;5.57;;;;;;;;;;5099619;28;20162;-47
2023/02/04 04:10:18;;;;;;;15.90;4.27;;;;;;;;;;5093739;28;20438;-42
2023/02/04 04:12:44;;;;;;;13.93;4.70;;;;;;;;;;5097036;28;20542;-43
2023/02/04 04:15:10;;;;;;;23.53;4.77;;;;;;;;;;5092379;28;20985;-42
2023/02/04 04:17:36;;;;;;;21.83;4.90;;;;;;;;;;5090254;28;21042;-43
2023/02/04 04:20:02;;;;;;;18.50;5.00;;;;;;;;;;5089103;28;20436;-43
2023/02/04 04:22:28;;;;;;;25.38;4.65;;;;;;;;;;5089030;28;20432;-43
2023/02/04 04:24:54;;;;;;;23.50;4.67;;;;;;;;;;5091388;28;20205;-43
2023/02/04 04:27:20;;;;;;;25.80;4.70;;;;;;;;;;5093522;28;20432;-43
2023/02/04 04:29:46;;;;;;;19.67;3.70;;;;;;;;;;5093128;28;20427;-44
2023/02/04 04:32:12;;;;;;;25.07;6.10;;;;;;;;;;5090525;28;20424;-47
2023/02/04 04:34:38;;;;;;;19.77;5.40;;;;;;;;;;5088715;28;20460;-42
2023/02/04 04:37:04;;;;;;;22.73;4.90;;;;;;;;;;5086926;28;20411;-42
2023/02/04 04:39:30;;;;;;;17.30;3.60;;;;;;;;;;5087515;28;20405;-43
2023/02/04 04:41:56;;;;;;;25.40;4.90;;;;;;;;;;5091255;28;20431;-43
2023/02/04 04:44:22;;;;;;;19.03;3.77;;;;;;;;;;5092815;28;20465;-43
2023/02/04 04:46:48;;;;;;;30.23;4.07;;;;;;;;;;5090547;28;20408;-43
2023/02/04 04:49:15;;;;;;;15.93;3.27;;;;;;;;;;5088718;28;20754;-44
2023/02/04 04:51:41;;;;;;;22.40;4.07;;;;;;;;;;5086660;28;20420;-42
2023/02/04 04:54:07;;;;;;;19.63;3.93;;;;;;;;;;5085072;28;20514;-42
2023/02/04 04:56:33;;;;;;;32.80;5.60;;;;;;;;;;5092447;28;20412;-42
2023/02/04 04:58:59;;;;;;;16.83;3.63;;;;;;;;;;5090172;28;20495;-43
2023/02/04 05:01:25;;;;;;;25.30;5.57;;;;;;;;;;5090394;28;20500;-43
2023/02/04 05:03:51;;;;;;;34.13;5.10;;;;;;;;;;5089614;28;20432;-47
2023/02/04 05:06:16;;;;;;;22.83;4.17;;;;;;;;;;5086730;28;20420;-42
2023/02/04 05:08:42;;;;;;;24.90;4.53;;;;;;;;;;5084984;28;20473;-48
2023/02/04 05:11:08;;;;;;;26.00;6.50;;;;;;;;;;5092330;28;20498;-42
2023/02/04 05:13:34;;;;;;;14.00;3.80;;;;;;;;;;5092274;28;20550;-42
2023/02/04 05:16:00;;;;;;;15.43;3.60;;;;;;;;;;5088379;28;20428;-43
2023/02/04 05:18:26;;;;;;;20.83;4.27;;;;;;;;;;5088923;28;20413;-43
2023/02/04 05:20:52;;;;;;;28.90;5.20;;;;;;;;;;5089408;28;20491;-43
2023/02/04 05:23:18;;;;;;;13.80;4.57;;;;;;;;;;5085345;28;20430;-46
2023/02/04 05:25:44;;;;;;;18.33;5.10;;;;;;;;;;5092153;28;20422;-46
2023/02/04 05:28:10;;;;;;;26.57;5.30;;;;;;;;;;5089966;28;20604;-43
2023/02/04 05:30:36;;;;;;;29.97;5.37;;;;;;;;;;5087871;28;20493;-42
2023/02/04 05:33:02;;;;;;;28.50;5.23;;;;;;;;;;5086099;28;20456;-42
2023/02/04 05:35:28;;;;;;;18.13;3.83;;;;;;;;;;5086490;28;20418;-43
2023/02/04 05:37:54;;;;;;;27.67;4.50;;;;;;;;;;5090107;28;20410;-43
2023/02/04 05:40:20;;;;;;;10.57;4.00;;;;;;;;;;5091935;28;20432;-43
2023/02/04 05:42:45;;;;;;;22.43;3.63;;;;;;;;;;5089434;28;20441;-45
2023/02/04 05:45:13;;;;;;;41.50;5.20;;;;;;;;;;5087847;28;20407;-42
2023/02/04 05:47:39;;;;;;;20.07;4.13;;;;;;;;;;5086125;28;20465;-42
2023/02/04 05:50:05;;;;;;;34.00;4.60;;;;;;;;;;5084202;28;20416;-42
2023/02/04 05:52:31;;;;;;;19.17;3.83;;;;;;;;;;5091636;28;20436;-43
2023/02/04 05:54:57;;;;;;;21.07;3.97;;;;;;;;;;5092832;28;20472;-43
2023/02/04 05:57:23;;;;;;;13.37;3.73;;;;;;;;;;5091693;28;20407;-43
2023/02/04 05:59:49;;;;;;;24.57;5.20;;;;;;;;;;5092056;28;20451;-43
2023/02/04 06:02:15;;;;;;;22.87;5.03;;;;;;;;;;5085808;28;20450;-43
2023/02/04 06:04:41;;;;;;;22.47;3.87;;;;;;;;;;5084227;28;20412;-44
2023/02/04 06:07:07;;;;;;;22.30;5.13;;;;;;;;;;5091686;28;20816;-47
2023/02/04 06:09:33;;;;;;;26.40;5.47;;;;;;;;;;5091948;28;20407;-42
2023/02/04 06:11:59;;;;;;;14.80;3.73;;;;;;;;;;5091330;28;20423;-43
2023/02/04 06:14:25;;;;;;;26.20;5.20;;;;;;;;;;5091131;28;20546;-43
2023/02/04 06:16:51;;;;;;;19.33;4.40;;;;;;;;;;5091651;28;20402;-43
2023/02/04 06:19:17;;;;;;;24.43;4.77;;;;;;;;;;5091680;28;20401;-42
2023/02/04 06:21:43;;;;;;;17.33;4.10;;;;;;;;;;5091488;28;20419;-43
2023/02/04 06:24:09;;;;;;;18.80;4.47;;;;;;;;;;5091500;28;20407;-44
2023/02/04 06:26:35;;;;;;;19.73;4.40;;;;;;;;;;5091580;28;20407;-45
2023/02/04 06:29:01;;;;;;;26.40;5.00;;;;;;;;;;5091646;28;20408;-46
2023/02/04 06:31:27;;;;;;;24.87;4.00;;;;;;;;;;5091224;28;20739;-43
2023/02/04 06:33:53;;;;;;;25.53;4.20;;;;;;;;;;5091305;28;20464;-42
2023/02/04 06:36:19;;;;;;;21.23;4.87;;;;;;;;;;5091629;28;20399;-42
2023/02/04 06:38:45;;;;;;;33.60;4.67;;;;;;;;;;5091563;28;20755;-42
2023/02/04 06:41:11;;;;;;;17.43;4.10;;;;;;;;;;5091375;28;20454;-43
2023/02/04 06:43:37;;;;;;;23.57;4.40;;;;;;;;;;5091398;28;20407;-43
2023/02/04 06:46:03;;;;;;;17.17;6.07;;;;;;;;;;5091441;28;20528;-43
2023/02/04 06:48:29;;;;;;;26.47;4.80;;;;;;;;;;5091433;28;20413;-45
2023/02/04 06:50:54;;;;;;;19.50;4.10;;;;;;;;;;5091240;28;20413;-46
2023/02/04 06:53:20;;;;;;;24.60;4.80;;;;;;;;;;5089932;28;20464;-42
2023/02/04 06:55:46;;;;;;;12.03;4.07;;;;;;;;;;5091113;28;20487;-43
2023/02/04 06:58:12;;;;;;;38.90;5.93;;;;;;;;;;5091067;28;20458;-48
2023/02/04 07:00:38;;;;;;;15.33;3.70;;;;;;;;;;5090642;28;20396;-42
2023/02/04 07:03:06;;;;;;;29.30;4.93;;;;;;;;;;5090765;28;20481;-42
2023/02/04 07:05:32;;;;;;;20.73;4.37;;;;;;;;;;5089991;28;20409;-46
2023/02/04 07:07:58;;;;;;;30.13;5.23;;;;;;;;;;5090370;28;20454;-46
2023/02/04 07:10:24;;;;;;;26.10;4.40;;;;;;;;;;5089676;28;20406;-43
2023/02/04 07:12:50;;;;;;;29.90;5.30;;;;;;;;;;5091195;28;20948;-42
2023/02/04 07:15:16;;;;;;;16.80;3.53;;;;;;;;;;5090490;28;20419;-43
2023/02/04 07:17:42;;;;;;;12.87;4.13;;;;;;;;;;5091345;28;20508;-43
2023/02/04 07:20:09;;;;;;;31.83;4.63;;;;;;;;;;5091099;28;20451;-42
2023/02/04 07:22:35;;;;;;;33.77;4.60;;;;;;;;;;5091117;28;20801;-43
2023/02/04 07:25:01;;;;;;;19.20;4.37;;;;;;;;;;5089145;28;20420;-42
2023/02/04 07:27:27;;;;;;;26.40;4.97;;;;;;;;;;5094698;28;20497;-43
2023/02/04 07:29:53;;;;;;;16.13;3.97;;;;;;;;;;5094734;28;20414;-43
2023/02/04 07:32:18;;;;;;;18.70;4.87;;;;;;;;;;5094403;28;20418;-42
2023/02/04 07:34:44;;;;;;;15.73;4.03;;;;;;;;;;5094481;28;20503;-43
2023/02/04 07:37:10;;;;;;;31.00;4.57;;;;;;;;;;5094373;28;20395;-43
2023/02/04 07:39:36;;;;;;;29.13;4.73;;;;;;;;;;5093554;28;20417;-47
2023/02/04 07:42:02;;;;;;;26.67;6.20;;;;;;;;;;5092479;28;20505;-43
2023/02/04 07:44:28;;;;;;;13.40;4.30;;;;;;;;;;5092625;28;20402;-43
2023/02/04 07:46:55;;;;;;;32.17;5.17;;;;;;;;;;5093699;28;20402;-42
2023/02/04 07:49:21;;;;;;;26.97;4.23;;;;;;;;;;5092546;28;20401;-45
2023/02/04 07:51:47;;;;;;;13.97;4.87;;;;;;;;;;5094067;28;20423;-46
2023/02/04 07:54:13;;;;;;;22.83;6.60;;;;;;;;;;5093421;28;20453;-43
2023/02/04 07:56:39;;;;;;;21.30;4.23;;;;;;;;;;5112132;28;20404;-42
2023/02/04 07:59:05;;;;;;;17.53;5.17;;;;;;;;;;5098733;28;20428;-43
2023/02/04 08:01:31;;;;;;;33.63;6.40;;;;;;;;;;5100147;28;20461;-43
2023/02/04 08:03:57;;;;;;;15.77;3.97;;;;;;;;;;5093614;28;20845;-43
2023/02/04 08:06:23;;;;;;;19.30;5.00;;;;;;;;;;5093801;28;20426;-43
2023/02/04 08:08:49;;;;;;;24.07;4.40;;;;;;;;;;5092870;28;20418;-42
2023/02/04 08:11:15;;;;;;;17.97;5.33;;;;;;;;;;5090214;28;20445;-43
2023/02/04 08:13:41;;;;;;;14.30;3.80;;;;;;;;;;5088188;28;20501;-43
2023/02/04 08:16:07;;;;;;;16.87;7.40;;;;;;;;;;5086639;28;20461;-43
2023/02/04 08:18:33;;;;;;;21.10;4.20;;;;;;;;;;5093236;28;20407;-46
2023/02/04 08:21:00;;;;;;;23.37;4.53;;;;;;;;;;5091773;28;20447;-47
2023/02/04 08:23:26;;;;;;;19.23;4.53;;;;;;;;;;5091786;28;20422;-43
2023/02/04 08:25:52;;;;;;;17.37;3.90;;;;;;;;;;5091261;28;20466;-43
2023/02/04 08:28:18;;;;;;;25.20;5.73;;;;;;;;;;5088232;28;20497;-42
2023/02/04 08:30:44;;;;;;;21.47;4.90;;;;;;;;;;5086216;28;20417;-45
2023/02/04 08:33:10;;;;;;;12.57;3.70;;;;;;;;;;5093229;28;21090;-43
2023/02/04 08:35:36;;;;;;;14.43;4.10;;;;;;;;;;5091120;28;20496;-46
2023/02/04 08:38:02;;;;;;;19.60;5.50;;;;;;;;;;5089622;28;20907;-42
2023/02/04 08:40:28;;;;;;;16.67;3.87;;;;;;;;;;5089893;28;20563;-42
2023/02/04 08:42:54;;;;;;;22.67;4.30;;;;;;;;;;5090973;28;20516;-42
2023/02/04 08:45:20;;;;;;;19.40;4.50;;;;;;;;;;5086330;28;20407;-42
2023/02/04 08:47:46;;;;;;;14.60;4.13;;;;;;;;;;5093027;28;20420;-43
2023/02/04 08:50:12;;;;;;;16.60;4.40;;;;;;;;;;5090816;28;20428;-43
2023/02/04 08:52:38;;;;;;;23.03;4.60;;;;;;;;;;5089187;28;21613;-42
2023/02/04 08:55:04;;;;;;;20.00;4.50;;;;;;;;;;5089392;28;20421;-43
2023/02/04 08:57:30;;;;;;;23.00;5.23;;;;;;;;;;5087525;28;20473;-43
2023/02/04 08:59:56;;;;;;;19.17;4.67;;;;;;;;;;5090990;28;20415;-43
2023/02/04 09:02:22;;;;;;;23.50;5.80;;;;;;;;;;5091430;28;20477;-46
2023/02/04 09:04:48;;;;;;;16.00;4.80;;;;;;;;;;5088678;28;20415;-45
2023/02/04 09:07:14;;;;;;;19.23;4.47;;;;;;;;;;5090905;28;20494;-43
2023/02/04 09:09:40;;;;;;;21.90;5.20;;;;;;;;;;5087252;28;20468;-42
2023/02/04 09:12:06;;;;;;;23.77;5.90;;;;;;;;;;5085232;28;20423;-42
2023/02/04 09:14:32;;;;;;;29.37;5.50;;;;;;;;;;5092176;28;20459;-43
2023/02/04 09:16:58;;;;;;;11.53;4.10;;;;;;;;;;5090489;28;20404;-43
2023/02/04 09:19:24;;;;;;;21.60;4.70;;;;;;;;;;5091403;28;20411;-43
2023/02/04 09:21:54;;;;;;;24.57;5.20;;;;;;;;;;5089887;28;20427;-42
2023/02/04 09:24:22;;;;;;;23.30;5.97;;;;;;;;;;5087915;28;20449;-44
2023/02/04 09:26:48;;;;;;;26.53;5.53;;;;;;;;;;5085459;28;20427;-45
2023/02/04 09:29:14;;;;;;;22.10;5.27;;;;;;;;;;5092315;28;20415;-45
2023/02/04 09:31:40;;;;;;;20.80;5.33;;;;;;;;;;5090171;28;20436;-45
2023/02/04 09:34:06;;;;;;;19.33;4.30;;;;;;;;;;5088335;28;21062;-44
2023/02/04 09:36:36;;;;;;;30.27;5.57;;;;;;;;;;5088655;28;20448;-45
2023/02/04 09:39:03;;;;;;;19.40;5.60;;;;;;;;;;5090257;28;20426;-45
2023/02/04 09:41:29;;;;;;;32.13;6.27;;;;;;;;;;5086671;28;20483;-45
2023/02/04 09:43:55;;;;;;;22.80;5.40;;;;;;;;;;5084121;28;20982;-45
2023/02/04 09:46:22;;;;;;;16.73;5.97;;;;;;;;;;5091786;28;20407;-44
2023/02/04 09:48:49;;;;;;;24.73;5.53;;;;;;;;;;5090962;28;20420;-44
2023/02/04 09:51:18;;;;;;;23.00;7.17;;;;;;;;;;5091604;28;20892;-44
2023/02/04 09:53:44;;;;;;;25.40;6.60;;;;;;;;;;5091889;28;20953;-45
2023/02/04 09:56:11;;;;;;;40.13;6.67;;;;;;;;;;5092056;28;20391;-44
2023/02/04 09:58:37;;;;;;;31.00;5.57;;;;;;;;;;5091870;28;20444;-44
2023/02/04 10:01:19;;;;;;;29.87;5.90;;;;;;;;;;5086739;28;20416;-44
2023/02/04 10:03:47;;;;;;;22.23;6.30;;;;;;;;;;5108985;28;20428;-45
2023/02/04 10:06:23;;;;;;;21.73;6.50;;;;;;;;;;5108217;28;20923;-44
2023/02/04 10:08:50;;;;;;;21.73;5.83;;;;;;;;;;5091905;28;20396;-44
2023/02/04 10:11:18;;;;;;;31.47;6.33;;;;;;;;;;5091660;28;20407;-45
2023/02/04 10:13:52;;;;;;;26.33;6.10;;;;;;;;;;5091462;28;20868;-44
2023/02/04 10:16:30;;;;;;;28.53;6.17;;;;;;;;;;5091958;28;20400;-44
2023/02/04 10:19:00;;;;;;;28.13;6.30;;;;;;;;;;5094862;28;20461;-45
2023/02/04 10:21:28;;;;;;;25.17;6.23;;;;;;;;;;5093732;28;20474;-45
2023/02/04 10:23:55;;;;;;;47.17;6.57;;;;;;;;;;5091370;28;20411;-44
2023/02/04 10:26:22;;;;;;;24.80;5.20;;;;;;;;;;5090426;28;20549;-45
2023/02/04 10:28:51;;;;;;;31.97;6.17;;;;;;;;;;5090973;28;20538;-44
2023/02/04 10:31:28;;;;;;;23.20;5.90;;;;;;;;;;5090450;28;20409;-44
2023/02/04 10:34:06;;;;;;;25.93;4.90;;;;;;;;;;5091735;28;20752;-45
2023/02/04 10:36:32;;;;;;;22.53;5.30;;;;;;;;;;5090667;28;20415;-45
2023/02/04 10:39:21;;;;;;;22.43;5.50;;;;;;;;;;5090259;28;20525;-45
2023/02/04 10:41:55;;;;;;;19.73;5.70;;;;;;;;;;5085179;28;20436;-45
2023/02/04 10:44:27;;;;;;;17.63;6.47;;;;;;;;;;5090467;28;20443;-44
2023/02/04 10:47:00;;;;;;;17.43;5.50;;;;;;;;;;5090720;28;20418;-45
2023/02/04 10:49:26;;;;;;;24.40;5.47;;;;;;;;;;5091410;28;20487;-44
2023/02/04 10:51:52;;;;;;;29.93;7.10;;;;;;;;;;5091429;28;21112;-45
2023/02/04 10:54:30;;;;;;;15.90;6.73;;;;;;;;;;5091325;28;20534;-45
2023/02/04 10:57:00;;;;;;;18.47;5.90;;;;;;;;;;5071326;28;20588;-44
2023/02/04 10:59:26;;;;;;;24.83;6.90;;;;;;;;;;5071017;28;20896;-46
2023/02/04 11:01:54;;;;;;;18.13;5.47;;;;;;;;;;5074304;28;20773;-45
2023/02/04 11:04:20;;;;;;;19.83;5.13;;;;;;;;;;5074883;28;20624;-44
2023/02/04 11:06:46;;;;;;;30.03;6.77;;;;;;;;;;5074946;28;20447;-45
2023/02/04 11:09:13;;;;;;;28.37;8.00;;;;;;;;;;5074854;28;20418;-44
2023/02/04 11:11:45;;;;;;;28.77;6.20;;;;;;;;;;5074692;28;20424;-44
2023/02/04 11:14:27;;;;;;;19.63;6.10;;;;;;;;;;5074377;28;20461;-44
2023/02/04 11:16:59;;;;;;;16.73;5.73;;;;;;;;;;5074860;28;20408;-45
2023/02/04 11:19:32;;;;;;;22.73;6.07;;;;;;;;;;5074653;28;20391;-44
2023/02/04 11:22:05;;;;;;;27.07;5.77;;;;;;;;;;5074535;28;20448;-45
2023/02/04 11:24:33;;;;;;;21.87;6.60;;;;;;;;;;5074153;28;20491;-45
2023/02/04 11:27:07;;;;;;;27.67;6.20;;;;;;;;;;5074520;28;20409;-45
2023/02/04 11:29:37;;;;;;;32.53;6.40;;;;;;;;;;5074531;28;20488;-45
2023/02/04 11:32:21;;;;;;;31.93;6.63;;;;;;;;;;5074400;28;20436;-45
2023/02/04 11:34:49;;;;;;;21.10;5.80;;;;;;;;;;5073931;28;20509;-45
2023/02/04 11:37:17;;;;;;;18.20;5.90;;;;;;;;;;5074424;28;20406;-44
2023/02/04 11:39:44;;;;;;;25.87;7.27;;;;;;;;;;5074255;28;20924;-44
2023/02/04 11:42:29;;;;;;;17.57;5.40;;;;;;;;;;5074164;28;20521;-45
2023/02/04 11:44:58;;;;;;;25.80;6.37;;;;;;;;;;5073990;28;20417;-45
2023/02/04 11:47:25;;;;;;;23.67;6.97;;;;;;;;;;5074013;28;20405;-45
2023/02/04 11:50:02;;;;;;;30.00;6.87;;;;;;;;;;5073986;28;20398;-44
2023/02/04 11:52:28;;;;;;;18.90;6.20;;;;;;;;;;5074154;28;20903;-45
2023/02/04 11:55:00;;;;;;;22.67;5.97;;;;;;;;;;5080945;28;20465;-44
2023/02/04 11:57:26;;;;;;;21.03;6.37;;;;;;;;;;5114642;28;20402;-45
2023/02/04 11:59:52;;;;;;;19.40;7.03;;;;;;;;;;5114247;28;20402;-45
2023/02/04 12:02:20;;;;;;;28.63;7.40;;;;;;;;;;5114416;28;20475;-45
2023/02/04 12:04:55;;;;;;;21.10;6.73;;;;;;;;;;5114242;28;20719;-45
2023/02/04 12:07:23;;;;;;;35.50;7.77;;;;;;;;;;5114389;28;20901;-45
2023/02/04 12:09:49;;;;;;;25.37;7.83;;;;;;;;;;5110218;28;20415;-45
2023/02/04 12:12:23;;;;;;;19.60;6.93;;;;;;;;;;5093316;28;20424;-44
2023/02/04 12:14:56;;;;;;;20.13;8.07;;;;;;;;;;5093680;28;20463;-45
2023/02/04 12:17:22;;;;;;;24.70;7.77;;;;;;;;;;5094085;28;20403;-44
2023/02/04 12:19:48;;;;;;;21.13;8.00;;;;;;;;;;5093713;28;20396;-45
2023/02/04 12:22:14;;;;;;;30.17;9.70;;;;;;;;;;5093770;28;20946;-44
2023/02/04 12:24:40;;;;;;;34.23;7.90;;;;;;;;;;5093620;28;20406;-45
2023/02/04 12:27:06;;;;;;;38.87;8.73;;;;;;;;;;5093517;28;20409;-45
2023/02/04 12:29:32;;;;;;;26.57;8.10;;;;;;;;;;5093506;28;20404;-45
2023/02/04 12:31:58;;;;;;;30.83;8.50;;;;;;;;;;5093165;28;20431;-45
2023/02/04 12:34:24;;;;;;;27.80;8.90;;;;;;;;;;5093379;28;20451;-44
2023/02/04 12:36:50;;;;;;;23.73;8.70;;;;;;;;;;5092703;28;20737;-44
2023/02/04 12:39:16;;;;;;;21.90;9.60;;;;;;;;;;5093206;28;20400;-44
2023/02/04 12:41:42;;;;;;;30.20;10.67;;;;;;;;;;5093279;28;20416;-44
2023/02/04 12:44:08;;;;;;;25.87;10.43;;;;;;;;;;5092280;28;20403;-45
2023/02/04 12:46:34;;;;;;;31.03;10.60;;;;;;;;;;5092353;28;20448;-45
2023/02/04 12:48:59;;;;;;;29.27;9.87;;;;;;;;;;5093381;28;20861;-45
2023/02/04 12:51:25;;;;;;;23.83;9.27;;;;;;;;;;5092861;28;20492;-45
2023/02/04 12:53:51;;;;;;;19.90;9.47;;;;;;;;;;5092980;28;20452;-45
2023/02/04 12:56:19;;;;;;;32.03;9.83;;;;;;;;;;5108638;28;20839;-45
2023/02/04 12:58:45;;;;;;;25.20;10.10;;;;;;;;;;5113994;28;20897;-44
2023/02/04 13:01:11;;;;;;;18.03;8.97;;;;;;;;;;5112870;28;20406;-44
2023/02/04 13:03:37;;;;;;;23.53;8.40;;;;;;;;;;5112582;28;20399;-44
2023/02/04 13:06:03;;;;;;;21.37;9.30;;;;;;;;;;5112345;28;20403;-44
2023/02/04 13:08:29;;;;;;;25.87;8.37;;;;;;;;;;5112643;28;20399;-44
2023/02/04 13:10:55;;;;;;;25.83;8.57;;;;;;;;;;5112205;28;20407;-45
2023/02/04 13:13:21;;;;;;;33.63;8.40;;;;;;;;;;5112418;28;20875;-44
2023/02/04 13:15:47;;;;;;;22.37;8.60;;;;;;;;;;5076117;28;20446;-44
2023/02/04 13:18:14;;;;;;;22.33;8.63;;;;;;;;;;5071762;28;20749;-44
2023/02/04 13:20:41;;;;;;;23.47;7.20;;;;;;;;;;5071669;28;20400;-44
2023/02/04 13:23:07;;;;;;;25.83;9.43;;;;;;;;;;5070811;28;20444;-44
2023/02/04 13:25:33;;;;;;;25.70;7.37;;;;;;;;;;5072323;28;20423;-44
2023/02/04 13:27:59;;;;;;;17.93;7.87;;;;;;;;;;5072168;28;20401;-44
2023/02/04 13:30:25;;;;;;;26.57;9.37;;;;;;;;;;5071731;28;20819;-45
2023/02/04 13:32:51;;;;;;;20.53;8.50;;;;;;;;;;5071514;28;20424;-45
2023/02/04 13:35:18;;;;;;;26.07;8.13;;;;;;;;;;5071672;28;20403;-44
2023/02/04 13:37:44;;;;;;;21.53;7.90;;;;;;;;;;5072014;28;20429;-44
2023/02/04 13:40:10;;;;;;;23.00;8.07;;;;;;;;;;5071910;28;20397;-45
2023/02/04 13:42:36;;;;;;;20.30;8.40;;;;;;;;;;5071899;28;20797;-45
2023/02/04 13:45:03;;;;;;;26.83;8.57;;;;;;;;;;5071594;28;20404;-45
2023/02/04 13:47:30;;;;;;;23.33;9.03;;;;;;;;;;5075285;28;20405;-44
2023/02/04 13:49:56;;;;;;;20.93;8.57;;;;;;;;;;5085204;28;20415;-45
2023/02/04 13:52:21;;;;;;;16.43;7.20;;;;;;;;;;5092079;28;20419;-45
2023/02/04 13:54:47;;;;;;;13.67;8.97;;;;;;;;;;5094272;28;20542;-45
2023/02/04 13:57:15;;;;;;;29.53;8.37;;;;;;;;;;5102853;28;20400;-45
2023/02/04 13:59:41;;;;;;;23.70;8.40;;;;;;;;;;5090403;28;20408;-45
2023/02/04 14:02:08;;;;;;;20.30;8.60;;;;;;;;;;5091148;28;20477;-45
2023/02/04 14:04:34;;;;;;;23.33;8.70;;;;;;;;;;5091715;28;20498;-45
2023/02/04 14:07:00;;;;;;;16.30;8.43;;;;;;;;;;5091702;28;20502;-45
2023/02/04 14:09:26;;;;;;;24.23;8.97;;;;;;;;;;5092223;28;20416;-45
2023/02/04 14:11:52;;;;;;;21.77;8.17;;;;;;;;;;5091561;28;20433;-45
2023/02/04 14:14:18;;;;;;;22.80;9.67;;;;;;;;;;5091438;28;20451;-45
2023/02/04 14:16:43;;;;;;;25.47;8.70;;;;;;;;;;5091778;28;20807;-45
2023/02/04 14:19:10;;;;;;;24.53;9.43;;;;;;;;;;5091633;28;20800;-45
2023/02/04 14:21:36;;;;;;;23.40;9.23;;;;;;;;;;5091742;28;20825;-45
2023/02/04 14:24:02;;;;;;;18.97;9.80;;;;;;;;;;5091486;28;20401;-45
2023/02/04 14:26:28;;;;;;;22.80;8.80;;;;;;;;;;5091509;28;20400;-45
2023/02/04 14:28:54;;;;;;;29.37;11.20;;;;;;;;;;5091439;28;20404;-44